| time (UTC) | temp C | wind direction | speed KPH | gust KPH | rain 1hr cm | rain 24hr cm | rain mn cm | humidity % | barometer mb |
| 20260507162024 | 32 | 110 | 6.4 | 9.7 | 0.00 | 0.00 | 0.00 | 21 | 1019.9 |
| 20260507161032 | 32 | 108 | 6.4 | 8.0 | 0.00 | 0.00 | 0.00 | 21 | 1020.3 |
| 20260507160022 | 32 | 117 | 6.4 | 9.7 | 0.00 | 0.00 | 0.00 | 21 | 1019.7 |
| 20260507155029 | 31 | 108 | 3.2 | 4.8 | 0.00 | 0.00 | 0.00 | 22 | 1019.5 |
| 20260507154019 | 30 | 97 | 3.2 | 4.8 | 0.00 | 0.00 | 0.00 | 22 | 1020.3 |
| 20260507153107 | 28 | 53 | 3.2 | 6.4 | 0.00 | 0.00 | 0.00 | 25 | 1019.6 |
| 20260507152036 | 27 | 266 | 3.2 | 6.4 | 0.00 | 0.00 | 0.00 | 26 | 1020.3 |
| 20260507151024 | 27 | 300 | 3.2 | 6.4 | 0.00 | 0.00 | 0.00 | 27 | 1020.3 |
| 20260507150032 | 26 | 17 | 3.2 | 4.8 | 0.00 | 0.00 | 0.00 | 27 | 1020.2 |
| 20260507145022 | 26 | 322 | 3.2 | 6.4 | 0.00 | 0.00 | 0.00 | 27 | 1020.2 |
| 20260507144030 | 25 | 2 | 1.6 | 3.2 | 0.00 | 0.00 | 0.00 | 29 | 1020.6 |
| 20260507143100 | 24 | 314 | 3.2 | 4.8 | 0.00 | 0.00 | 0.00 | 30 | 1020.0 |
| 20260507142028 | 23 | 348 | 3.2 | 3.2 | 0.00 | 0.00 | 0.00 | 31 | 1020.2 |
| 20260507141017 | 23 | 34 | 1.6 | 1.6 | 0.00 | 0.00 | 0.00 | 31 | 1020.1 |
| 20260507140025 | 23 | 347 | 1.6 | 3.2 | 0.00 | 0.00 | 0.00 | 33 | 1020.1 |
| 20260507135053 | 21 | 40 | 1.6 | 1.6 | 0.00 | 0.00 | 0.00 | 35 | 1020.1 |
| 20260507134022 | 21 | 73 | 1.6 | 1.6 | 0.00 | 0.00 | 0.00 | 35 | 1019.9 |
| 20260507133030 | 20 | 354 | 0.0 | 3.2 | 0.00 | 0.00 | 0.00 | 37 | 1020.2 |
| 20260507132020 | 18 | 8 | 1.6 | 1.6 | 0.00 | 0.00 | 0.00 | 37 | 1019.6 |
| 20260507131028 | 17 | 193 | 1.6 | 1.6 | 0.00 | 0.00 | 0.00 | 37 | 1019.4 |
| 20260507130017 | 17 | 42 | 1.6 | 1.6 | 0.00 | 0.00 | 0.00 | 39 | 1019.4 |
| 20260507125025 | 16 | 353 | 1.6 | 3.2 | 0.00 | 0.00 | 0.00 | 39 | 1019.2 |
| 20260507124115 | 16 | 317 | 3.2 | 4.8 | 0.00 | 0.00 | 0.00 | 39 | 1019.5 |
| 20260507123023 | 16 | 327 | 0.0 | 3.2 | 0.00 | 0.00 | 0.00 | 39 | 1019.4 |
| 20260507122031 | 16 | 3 | 1.6 | 3.2 | 0.00 | 0.00 | 0.00 | 37 | 1019.7 |
| 20260507121020 | 17 | 339 | 3.2 | 4.8 | 0.00 | 0.00 | 0.00 | 37 | 1019.2 |
| 20260507120029 | 17 | 33 | 1.6 | 3.2 | 0.00 | 0.00 | 0.00 | 37 | 1019.3 |
| 20260507115018 | 17 | 354 | 3.2 | 3.2 | 0.00 | 0.00 | 0.00 | 37 | 1019.4 |
| 20260507114025 | 17 | 2 | 3.2 | 4.8 | 0.00 | 0.00 | 0.00 | 37 | 1019.5 |
| 20260507113015 | 17 | 350 | 4.8 | 6.4 | 0.00 | 0.00 | 0.00 | 37 | 1019.6 |
| 20260507112023 | 17 | 333 | 6.4 | 6.4 | 0.00 | 0.00 | 0.00 | 37 | 1019.6 |
| 20260507111031 | 17 | 340 | 4.8 | 6.4 | 0.00 | 0.00 | 0.00 | 37 | 1019.8 |
| 20260507110040 | 17 | 331 | 4.8 | 6.4 | 0.00 | 0.00 | 0.00 | 37 | 1019.7 |
| 20260507105028 | 17 | 329 | 1.6 | 3.2 | 0.00 | 0.00 | 0.00 | 37 | 1020.2 |
| 20260507104018 | 17 | 325 | 1.6 | 3.2 | 0.00 | 0.00 | 0.00 | 37 | 1019.8 |
| 20260507103025 | 17 | 270 | 0.0 | 1.6 | 0.00 | 0.00 | 0.00 | 37 | 1020.2 |
| 20260507102115 | 17 | 57 | 1.6 | 3.2 | 0.00 | 0.00 | 0.00 | 37 | 1020.0 |
| 20260507101023 | 18 | 323 | 1.6 | 1.6 | 0.00 | 0.00 | 0.00 | 37 | 1019.9 |
| 20260507100031 | 17 | 360 | 1.6 | 3.2 | 0.00 | 0.00 | 0.00 | 39 | 1020.0 |
| 20260507095021 | 17 | 57 | 1.6 | 1.6 | 0.00 | 0.00 | 0.00 | 39 | 1020.1 |
| 20260507094028 | 17 | 109 | 1.6 | 3.2 | 0.00 | 0.00 | 0.00 | 39 | 1019.7 |
| 20260507093018 | 18 | 3 | 1.6 | 1.6 | 0.00 | 0.00 | 0.00 | 37 | 1019.9 |
| 20260507092046 | 18 | 341 | 1.6 | 1.6 | 0.00 | 0.00 | 0.00 | 37 | 1019.9 |
| 20260507091015 | 19 | 329 | 1.6 | 1.6 | 0.00 | 0.00 | 0.00 | 35 | 1019.7 |
| 20260507090023 | 19 | 293 | 0.0 | 1.6 | 0.00 | 0.00 | 0.00 | 35 | 1019.7 |
| 20260507085052 | 20 | 320 | 1.6 | 3.2 | 0.00 | 0.00 | 0.00 | 34 | 1019.9 |
| 20260507084101 | 20 | 312 | 3.2 | 4.8 | 0.00 | 0.00 | 0.00 | 32 | 1020.1 |
| 20260507083029 | 20 | 300 | 3.2 | 4.8 | 0.00 | 0.00 | 0.00 | 32 | 1020.3 |
| 20260507082018 | 20 | 331 | 3.2 | 4.8 | 0.00 | 0.00 | 0.00 | 32 | 1020.1 |
| 20260507081026 | 20 | 318 | 1.6 | 1.6 | 0.00 | 0.00 | 0.00 | 33 | 1020.1 |
| 20260507080015 | 21 | 0 | 0.0 | 1.6 | 0.00 | 0.00 | 0.00 | 31 | 1020.0 |
| 20260507075023 | 21 | 219 | 0.0 | 1.6 | 0.00 | 0.00 | 0.00 | 30 | 1019.9 |
| 20260507074031 | 22 | 263 | 1.6 | 3.2 | 0.00 | 0.00 | 0.00 | 30 | 1020.5 |
| 20260507073101 | 22 | 228 | 4.8 | 4.8 | 0.00 | 0.00 | 0.00 | 30 | 1019.9 |
| 20260507072029 | 22 | 213 | 4.8 | 6.4 | 0.00 | 0.00 | 0.00 | 30 | 1020.0 |
| 20260507071019 | 22 | 221 | 6.4 | 9.7 | 0.00 | 0.00 | 0.00 | 30 | 1019.9 |
| 20260507070026 | 22 | 208 | 6.4 | 8.0 | 0.00 | 0.00 | 0.00 | 30 | 1019.8 |
| 20260507065015 | 22 | 212 | 4.8 | 6.4 | 0.00 | 0.00 | 0.00 | 29 | 1020.0 |
| 20260507064023 | 22 | 224 | 4.8 | 4.8 | 0.00 | 0.00 | 0.00 | 29 | 1020.1 |
| 20260507063031 | 22 | 215 | 4.8 | 8.0 | 0.00 | 0.00 | 0.00 | 29 | 1019.8 |
| 20260507062021 | 22 | 230 | 6.4 | 8.0 | 0.00 | 0.00 | 0.00 | 29 | 1020.1 |
| 20260507061029 | 22 | 202 | 4.8 | 6.4 | 0.00 | 0.00 | 0.00 | 29 | 1019.8 |
| 20260507060018 | 22 | 190 | 3.2 | 4.8 | 0.00 | 0.00 | 0.00 | 29 | 1020.1 |
| 20260507055026 | 23 | 227 | 3.2 | 4.8 | 0.00 | 0.00 | 0.00 | 29 | 1020.1 |
| 20260507054015 | 23 | 265 | 4.8 | 8.0 | 0.00 | 0.00 | 0.00 | 29 | 1020.0 |
| 20260507053043 | 22 | 268 | 4.8 | 8.0 | 0.00 | 0.00 | 0.00 | 30 | 1020.2 |
| 20260507052052 | 22 | 245 | 1.6 | 3.2 | 0.00 | 0.00 | 0.00 | 30 | 1020.1 |
| 20260507051021 | 23 | 232 | 1.6 | 3.2 | 0.00 | 0.00 | 0.00 | 30 | 1020.1 |
| 20260507050029 | 23 | 238 | 3.2 | 4.8 | 0.00 | 0.00 | 0.00 | 30 | 1019.9 |
| 20260507045018 | 23 | 231 | 6.4 | 8.0 | 0.00 | 0.00 | 0.00 | 30 | 1020.1 |
| 20260507044026 | 23 | 227 | 4.8 | 8.0 | 0.00 | 0.00 | 0.00 | 29 | 1019.6 |
| 20260507043035 | 24 | 219 | 4.8 | 6.4 | 0.00 | 0.00 | 0.00 | 27 | 1020.1 |
| 20260507042024 | 24 | 235 | 6.4 | 8.0 | 0.00 | 0.00 | 0.00 | 27 | 1019.8 |
| 20260507041051 | 24 | 220 | 4.8 | 6.4 | 0.00 | 0.00 | 0.00 | 27 | 1019.2 |
| 20260507040021 | 25 | 220 | 4.8 | 6.4 | 0.00 | 0.00 | 0.00 | 27 | 1019.6 |
| 20260507035029 | 25 | 189 | 3.2 | 4.8 | 0.00 | 0.00 | 0.00 | 27 | 1019.0 |
| 20260507034018 | 25 | 199 | 3.2 | 4.8 | 0.00 | 0.00 | 0.00 | 27 | 1018.9 |
| 20260507033026 | 25 | 231 | 3.2 | 6.4 | 0.00 | 0.00 | 0.00 | 27 | 1018.7 |
| 20260507032015 | 26 | 250 | 6.4 | 8.0 | 0.00 | 0.00 | 0.00 | 27 | 1018.9 |
| 20260507031023 | 26 | 229 | 4.8 | 6.4 | 0.00 | 0.00 | 0.00 | 27 | 1018.6 |
| 20260507030051 | 26 | 237 | 4.8 | 6.4 | 0.00 | 0.00 | 0.00 | 27 | 1018.6 |
| 20260507025021 | 26 | 242 | 6.4 | 8.0 | 0.00 | 0.00 | 0.00 | 27 | 1018.3 |
| 20260507024029 | 26 | 200 | 4.8 | 6.4 | 0.00 | 0.00 | 0.00 | 25 | 1017.9 |
| 20260507023019 | 26 | 205 | 6.4 | 8.0 | 0.00 | 0.00 | 0.00 | 25 | 1018.3 |
| 20260507022026 | 27 | 228 | 6.4 | 9.7 | 0.00 | 0.00 | 0.00 | 24 | 1018.2 |
| 20260507021016 | 27 | 212 | 8.0 | 9.7 | 0.00 | 0.00 | 0.00 | 24 | 1018.0 |
| 20260507020044 | 27 | 214 | 9.7 | 12.9 | 0.00 | 0.00 | 0.00 | 24 | 1018.3 |
| 20260507015031 | 28 | 199 | 8.0 | 11.3 | 0.00 | 0.00 | 0.00 | 22 | 1017.8 |
| 20260507014021 | 28 | 198 | 8.0 | 12.9 | 0.00 | 0.00 | 0.00 | 22 | 1018.0 |
| 20260507013049 | 28 | 216 | 9.7 | 12.9 | 0.00 | 0.00 | 0.00 | 22 | 1017.9 |
| 20260507012018 | 29 | 226 | 8.0 | 11.3 | 0.00 | 0.00 | 0.00 | 22 | 1018.0 |
| 20260507011026 | 29 | 184 | 8.0 | 12.9 | 0.00 | 0.00 | 0.00 | 22 | 1017.7 |
| 20260507010015 | 30 | 193 | 8.0 | 12.9 | 0.00 | 0.00 | 0.00 | 22 | 1017.9 |
| 20260507005023 | 30 | 235 | 9.7 | 11.3 | 0.00 | 0.00 | 0.00 | 22 | 1018.2 |
| 20260507004030 | 30 | 174 | 4.8 | 8.0 | 0.00 | 0.00 | 0.00 | 22 | 1017.7 |
| 20260507003040 | 30 | 209 | 9.7 | 11.3 | 0.00 | 0.00 | 0.00 | 22 | 1017.8 |
| 20260507002027 | 30 | 167 | 8.0 | 12.9 | 0.00 | 0.00 | 0.00 | 22 | 1018.1 |
| 20260507001017 | 31 | 167 | 6.4 | 8.0 | 0.00 | 0.00 | 0.00 | 22 | 1018.0 |
| 20260507000025 | 30 | 174 | 6.4 | 9.7 | 0.00 | 0.00 | 0.00 | 22 | 1018.1 |
| 20260506235014 | 30 | 207 | 8.0 | 11.3 | 0.00 | 0.00 | 0.00 | 22 | 1018.4 |
| 20260506234022 | 31 | 248 | 9.7 | 12.9 | 0.00 | 0.00 | 0.00 | 22 | 1018.5 |
| 20260506233030 | 30 | 245 | 9.7 | 14.5 | 0.00 | 0.00 | 0.00 | 22 | 1018.0 |
| 20260506232020 | 31 | 224 | 6.4 | 9.7 | 0.00 | 0.00 | 0.00 | 22 | 1018.8 |
| 20260506231027 | 30 | 202 | 6.4 | 14.5 | 0.00 | 0.00 | 0.00 | 22 | 1018.5 |
| 20260506230037 | 31 | 243 | 6.4 | 9.7 | 0.00 | 0.00 | 0.00 | 22 | 1018.9 |
| 20260506225024 | 31 | 155 | 8.0 | 12.9 | 0.00 | 0.00 | 0.00 | 22 | 1018.9 |
| 20260506224032 | 30 | 159 | 6.4 | 9.7 | 0.00 | 0.00 | 0.00 | 24 | 1018.9 |
| 20260506223021 | 31 | 259 | 6.4 | 11.3 | 0.00 | 0.00 | 0.00 | 22 | 1018.7 |
| 20260506222029 | 31 | 197 | 4.8 | 9.7 | 0.00 | 0.00 | 0.00 | 22 | 1019.2 |
| 20260506221038 | 31 | 231 | 6.4 | 14.5 | 0.00 | 0.00 | 0.00 | 22 | 1019.3 |
| 20260506220026 | 30 | 225 | 8.0 | 12.9 | 0.00 | 0.00 | 0.00 | 22 | 1019.1 |
| 20260506215016 | 30 | 237 | 8.0 | 9.7 | 0.00 | 0.00 | 0.00 | 22 | 1019.8 |
| 20260506214044 | 30 | 155 | 8.0 | 11.3 | 0.00 | 0.00 | 0.00 | 23 | 1019.5 |
| 20260506213032 | 30 | 250 | 9.7 | 14.5 | 0.00 | 0.00 | 0.00 | 22 | 1019.9 |
| 20260506212021 | 31 | 260 | 4.8 | 8.0 | 0.00 | 0.00 | 0.00 | 22 | 1020.1 |
| 20260506211029 | 31 | 143 | 4.8 | 11.3 | 0.00 | 0.00 | 0.00 | 23 | 1020.2 |
| 20260506210018 | 29 | 223 | 8.0 | 11.3 | 0.00 | 0.00 | 0.00 | 24 | 1020.3 |
| 20260506205026 | 31 | 242 | 4.8 | 8.0 | 0.00 | 0.00 | 0.00 | 22 | 1020.8 |
| 20260506204015 | 30 | 264 | 6.4 | 9.7 | 0.00 | 0.00 | 0.00 | 22 | 1020.6 |
| 20260506203023 | 30 | 297 | 6.4 | 12.9 | 0.00 | 0.00 | 0.00 | 22 | 1020.7 |
| 20260506202031 | 30 | 241 | 9.7 | 16.1 | 0.00 | 0.00 | 0.00 | 23 | 1020.9 |
| 20260506201020 | 31 | 243 | 4.8 | 8.0 | 0.00 | 0.00 | 0.00 | 23 | 1021.1 |
| 20260506200028 | 28 | 202 | 8.0 | 12.9 | 0.00 | 0.00 | 0.00 | 24 | 1021.2 |
| 20260506195018 | 29 | 244 | 6.4 | 11.3 | 0.00 | 0.00 | 0.00 | 25 | 1020.9 |
| 20260506194025 | 28 | 303 | 4.8 | 8.0 | 0.00 | 0.00 | 0.00 | 25 | 1021.2 |
| 20260506193015 | 28 | 303 | 8.0 | 12.9 | 0.00 | 0.00 | 0.00 | 25 | 1021.3 |
| 20260506192023 | 28 | 251 | 6.4 | 11.3 | 0.00 | 0.00 | 0.00 | 25 | 1021.4 |
| 20260506191051 | 28 | 206 | 9.7 | 12.9 | 0.00 | 0.00 | 0.00 | 27 | 1021.5 |
| 20260506190020 | 28 | 202 | 6.4 | 9.7 | 0.00 | 0.00 | 0.00 | 27 | 1021.6 |
| 20260506185028 | 28 | 269 | 9.7 | 14.5 | 0.00 | 0.00 | 0.00 | 25 | 1021.7 |
| 20260506184017 | 30 | 93 | 4.8 | 8.0 | 0.00 | 0.00 | 0.00 | 23 | 1021.6 |
| 20260506183025 | 28 | 164 | 6.4 | 9.7 | 0.00 | 0.00 | 0.00 | 25 | 1022.3 |
| 20260506182015 | 28 | 190 | 6.4 | 9.7 | 0.00 | 0.00 | 0.00 | 27 | 1022.4 |
| 20260506181023 | 28 | 179 | 4.8 | 9.7 | 0.00 | 0.00 | 0.00 | 27 | 1022.5 |
| 20260506180051 | 27 | 167 | 3.2 | 6.4 | 0.00 | 0.00 | 0.00 | 28 | 1022.0 |
| 20260506175020 | 27 | 140 | 6.4 | 8.0 | 0.00 | 0.00 | 0.00 | 30 | 1022.6 |
| 20260506174049 | 26 | 297 | 4.8 | 8.0 | 0.00 | 0.00 | 0.00 | 29 | 1022.7 |
| 20260506173018 | 26 | 237 | 6.4 | 11.3 | 0.00 | 0.00 | 0.00 | 30 | 1022.3 |
| 20260506172026 | 26 | 147 | 4.8 | 6.4 | 0.00 | 0.00 | 0.00 | 30 | 1022.6 |
| 20260506171015 | 25 | 174 | 6.4 | 8.0 | 0.00 | 0.00 | 0.00 | 32 | 1022.4 |
| 20260506170023 | 24 | 184 | 6.4 | 9.7 | 0.00 | 0.00 | 0.00 | 35 | 1022.5 |
| 20260506165031 | 24 | 254 | 6.4 | 9.7 | 0.00 | 0.00 | 0.00 | 34 | 1022.0 |
| 20260506164020 | 24 | 236 | 4.8 | 11.3 | 0.00 | 0.00 | 0.00 | 35 | 1022.4 |
| 20260506163028 | 22 | 214 | 4.8 | 8.0 | 0.00 | 0.00 | 0.00 | 36 | 1022.5 |